sensor_id;sensor_type;location;lat;lon;timestamp;P1;durP1;ratioP1;P2;durP2;ratioP2
40793;SDS011;26502;51.886;15.604;2022-07-24T00:05:01;10.80;;;7.00;;
40793;SDS011;26502;51.886;15.604;2022-07-24T00:10:11;8.60;;;6.80;;
40793;SDS011;26502;51.886;15.604;2022-07-24T00:15:19;13.40;;;8.80;;
40793;SDS011;26502;51.886;15.604;2022-07-24T00:20:26;16.30;;;10.00;;
40793;SDS011;26502;51.886;15.604;2022-07-24T00:25:34;16.10;;;12.70;;
40793;SDS011;26502;51.886;15.604;2022-07-24T00:30:44;19.80;;;14.60;;
40793;SDS011;26502;51.886;15.604;2022-07-24T00:35:53;15.20;;;13.50;;
40793;SDS011;26502;51.886;15.604;2022-07-24T00:41:04;15.20;;;11.80;;
40793;SDS011;26502;51.886;15.604;2022-07-24T00:46:13;14.50;;;12.00;;
40793;SDS011;26502;51.886;15.604;2022-07-24T00:51:23;13.80;;;11.10;;
40793;SDS011;26502;51.886;15.604;2022-07-24T00:56:38;11.90;;;9.80;;
40793;SDS011;26502;51.886;15.604;2022-07-24T01:01:46;10.30;;;9.30;;
40793;SDS011;26502;51.886;15.604;2022-07-24T01:06:54;10.10;;;9.10;;
40793;SDS011;26502;51.886;15.604;2022-07-24T01:12:03;10.00;;;8.50;;
40793;SDS011;26502;51.886;15.604;2022-07-24T01:17:11;10.10;;;9.10;;
40793;SDS011;26502;51.886;15.604;2022-07-24T01:22:18;9.10;;;8.20;;
40793;SDS011;26502;51.886;15.604;2022-07-24T01:27:27;9.90;;;8.60;;
40793;SDS011;26502;51.886;15.604;2022-07-24T01:32:34;9.70;;;8.10;;
40793;SDS011;26502;51.886;15.604;2022-07-24T01:37:42;12.00;;;8.30;;
40793;SDS011;26502;51.886;15.604;2022-07-24T01:42:49;8.40;;;7.50;;
40793;SDS011;26502;51.886;15.604;2022-07-24T01:47:58;7.70;;;7.00;;
40793;SDS011;26502;51.886;15.604;2022-07-24T01:53:06;7.90;;;6.90;;
40793;SDS011;26502;51.886;15.604;2022-07-24T01:58:14;10.50;;;7.10;;
40793;SDS011;26502;51.886;15.604;2022-07-24T02:03:22;8.10;;;6.90;;
40793;SDS011;26502;51.886;15.604;2022-07-24T02:08:30;11.20;;;6.40;;
40793;SDS011;26502;51.886;15.604;2022-07-24T02:13:37;5.90;;;5.30;;
40793;SDS011;26502;51.886;15.604;2022-07-24T02:18:44;7.20;;;5.70;;
40793;SDS011;26502;51.886;15.604;2022-07-24T02:23:52;4.90;;;4.50;;
40793;SDS011;26502;51.886;15.604;2022-07-24T02:28:59;6.20;;;5.60;;
40793;SDS011;26502;51.886;15.604;2022-07-24T02:34:06;6.00;;;5.40;;
40793;SDS011;26502;51.886;15.604;2022-07-24T02:39:14;6.40;;;5.30;;
40793;SDS011;26502;51.886;15.604;2022-07-24T02:44:21;7.20;;;4.80;;
40793;SDS011;26502;51.886;15.604;2022-07-24T02:49:28;7.70;;;4.60;;
40793;SDS011;26502;51.886;15.604;2022-07-24T02:54:35;5.90;;;4.90;;
40793;SDS011;26502;51.886;15.604;2022-07-24T02:59:42;7.20;;;5.00;;
40793;SDS011;26502;51.886;15.604;2022-07-24T03:04:54;5.00;;;4.50;;
40793;SDS011;26502;51.886;15.604;2022-07-24T03:10:05;4.40;;;4.00;;
40793;SDS011;26502;51.886;15.604;2022-07-24T03:15:15;4.80;;;4.30;;
40793;SDS011;26502;51.886;15.604;2022-07-24T03:20:37;4.90;;;4.40;;
40793;SDS011;26502;51.886;15.604;2022-07-24T03:25:44;4.90;;;4.20;;
40793;SDS011;26502;51.886;15.604;2022-07-24T03:30:51;5.20;;;4.70;;
40793;SDS011;26502;51.886;15.604;2022-07-24T03:36:01;5.20;;;4.70;;
40793;SDS011;26502;51.886;15.604;2022-07-24T03:41:12;6.50;;;4.80;;
40793;SDS011;26502;51.886;15.604;2022-07-24T03:46:20;5.40;;;4.90;;
40793;SDS011;26502;51.886;15.604;2022-07-24T03:51:40;6.10;;;4.80;;
40793;SDS011;26502;51.886;15.604;2022-07-24T03:56:53;5.90;;;4.90;;
40793;SDS011;26502;51.886;15.604;2022-07-24T04:02:02;5.40;;;4.90;;
40793;SDS011;26502;51.886;15.604;2022-07-24T04:07:09;6.80;;;4.80;;
40793;SDS011;26502;51.886;15.604;2022-07-24T04:17:24;5.90;;;5.30;;
40793;SDS011;26502;51.886;15.604;2022-07-24T04:22:31;5.90;;;4.90;;
40793;SDS011;26502;51.886;15.604;2022-07-24T04:27:38;5.70;;;5.20;;
40793;SDS011;26502;51.886;15.604;2022-07-24T04:32:47;6.40;;;5.40;;
40793;SDS011;26502;51.886;15.604;2022-07-24T04:37:56;5.60;;;5.00;;
40793;SDS011;26502;51.886;15.604;2022-07-24T04:43:03;5.90;;;4.50;;
40793;SDS011;26502;51.886;15.604;2022-07-24T04:48:10;5.00;;;4.30;;
40793;SDS011;26502;51.886;15.604;2022-07-24T04:53:19;7.40;;;5.00;;
40793;SDS011;26502;51.886;15.604;2022-07-24T04:58:27;7.10;;;5.30;;
40793;SDS011;26502;51.886;15.604;2022-07-24T05:03:35;6.20;;;5.00;;
40793;SDS011;26502;51.886;15.604;2022-07-24T05:08:43;7.20;;;4.30;;
40793;SDS011;26502;51.886;15.604;2022-07-24T05:13:51;4.90;;;4.30;;
40793;SDS011;26502;51.886;15.604;2022-07-24T05:18:59;5.20;;;3.90;;
40793;SDS011;26502;51.886;15.604;2022-07-24T05:24:08;4.90;;;4.10;;
40793;SDS011;26502;51.886;15.604;2022-07-24T05:29:15;5.10;;;3.70;;
40793;SDS011;26502;51.886;15.604;2022-07-24T05:34:22;6.50;;;4.00;;
40793;SDS011;26502;51.886;15.604;2022-07-24T05:39:30;5.10;;;3.70;;
40793;SDS011;26502;51.886;15.604;2022-07-24T05:44:37;4.20;;;3.80;;
40793;SDS011;26502;51.886;15.604;2022-07-24T05:49:44;8.40;;;4.20;;
40793;SDS011;26502;51.886;15.604;2022-07-24T05:54:51;5.00;;;3.60;;
40793;SDS011;26502;51.886;15.604;2022-07-24T05:59:59;4.40;;;3.60;;
40793;SDS011;26502;51.886;15.604;2022-07-24T06:05:15;4.40;;;3.40;;
40793;SDS011;26502;51.886;15.604;2022-07-24T06:10:27;4.90;;;3.50;;
40793;SDS011;26502;51.886;15.604;2022-07-24T06:15:37;4.70;;;2.80;;
40793;SDS011;26502;51.886;15.604;2022-07-24T06:20:44;3.20;;;2.30;;
40793;SDS011;26502;51.886;15.604;2022-07-24T06:25:52;4.60;;;2.30;;
40793;SDS011;26502;51.886;15.604;2022-07-24T06:30:59;3.30;;;2.40;;
40793;SDS011;26502;51.886;15.604;2022-07-24T06:36:07;5.50;;;2.40;;
40793;SDS011;26502;51.886;15.604;2022-07-24T06:41:15;3.10;;;2.00;;
40793;SDS011;26502;51.886;15.604;2022-07-24T06:46:22;1.40;;;1.30;;
40793;SDS011;26502;51.886;15.604;2022-07-24T06:51:29;4.70;;;1.70;;
40793;SDS011;26502;51.886;15.604;2022-07-24T06:56:36;2.60;;;1.60;;
40793;SDS011;26502;51.886;15.604;2022-07-24T07:01:49;2.30;;;1.80;;
40793;SDS011;26502;51.886;15.604;2022-07-24T07:06:56;2.40;;;2.00;;
40793;SDS011;26502;51.886;15.604;2022-07-24T07:12:04;1.80;;;1.70;;
40793;SDS011;26502;51.886;15.604;2022-07-24T07:17:12;2.60;;;1.60;;
40793;SDS011;26502;51.886;15.604;2022-07-24T07:22:21;3.10;;;1.40;;
40793;SDS011;26502;51.886;15.604;2022-07-24T07:27:29;4.50;;;1.10;;
40793;SDS011;26502;51.886;15.604;2022-07-24T07:32:38;1.40;;;1.10;;
40793;SDS011;26502;51.886;15.604;2022-07-24T07:37:46;1.40;;;0.90;;
40793;SDS011;26502;51.886;15.604;2022-07-24T07:42:53;1.10;;;1.00;;
40793;SDS011;26502;51.886;15.604;2022-07-24T07:48:01;1.00;;;0.90;;
40793;SDS011;26502;51.886;15.604;2022-07-24T07:53:12;1.90;;;1.00;;
40793;SDS011;26502;51.886;15.604;2022-07-24T07:58:20;6.70;;;1.30;;
40793;SDS011;26502;51.886;15.604;2022-07-24T08:03:31;2.90;;;1.00;;
40793;SDS011;26502;51.886;15.604;2022-07-24T08:08:39;2.40;;;1.10;;
40793;SDS011;26502;51.886;15.604;2022-07-24T08:13:46;2.70;;;1.20;;
40793;SDS011;26502;51.886;15.604;2022-07-24T08:18:55;1.70;;;0.90;;
40793;SDS011;26502;51.886;15.604;2022-07-24T08:24:03;1.50;;;0.70;;
40793;SDS011;26502;51.886;15.604;2022-07-24T08:29:12;0.80;;;0.70;;
40793;SDS011;26502;51.886;15.604;2022-07-24T08:34:20;2.00;;;0.70;;
40793;SDS011;26502;51.886;15.604;2022-07-24T08:39:30;1.20;;;0.90;;
40793;SDS011;26502;51.886;15.604;2022-07-24T08:44:38;3.40;;;1.00;;
40793;SDS011;26502;51.886;15.604;2022-07-24T08:49:46;1.90;;;0.80;;
40793;SDS011;26502;51.886;15.604;2022-07-24T08:54:57;1.50;;;1.20;;
40793;SDS011;26502;51.886;15.604;2022-07-24T09:00:37;3.70;;;0.80;;
40793;SDS011;26502;51.886;15.604;2022-07-24T09:05:55;3.30;;;0.80;;
40793;SDS011;26502;51.886;15.604;2022-07-24T09:16:09;1.80;;;0.80;;
40793;SDS011;26502;51.886;15.604;2022-07-24T09:21:27;3.00;;;0.80;;
40793;SDS011;26502;51.886;15.604;2022-07-24T09:26:44;2.90;;;0.90;;
40793;SDS011;26502;51.886;15.604;2022-07-24T09:31:54;0.70;;;0.70;;
40793;SDS011;26502;51.886;15.604;2022-07-24T09:37:03;2.40;;;0.80;;
40793;SDS011;26502;51.886;15.604;2022-07-24T09:42:15;2.90;;;0.80;;
40793;SDS011;26502;51.886;15.604;2022-07-24T09:47:23;1.40;;;1.20;;
40793;SDS011;26502;51.886;15.604;2022-07-24T09:52:33;2.80;;;0.80;;
40793;SDS011;26502;51.886;15.604;2022-07-24T09:57:43;1.10;;;0.80;;
40793;SDS011;26502;51.886;15.604;2022-07-24T10:02:51;1.10;;;0.80;;
40793;SDS011;26502;51.886;15.604;2022-07-24T10:08:02;0.70;;;0.70;;
40793;SDS011;26502;51.886;15.604;2022-07-24T10:13:10;4.90;;;0.90;;
40793;SDS011;26502;51.886;15.604;2022-07-24T10:18:20;0.80;;;0.80;;
40793;SDS011;26502;51.886;15.604;2022-07-24T10:23:36;2.20;;;0.80;;
40793;SDS011;26502;51.886;15.604;2022-07-24T10:29:00;1.30;;;0.80;;
40793;SDS011;26502;51.886;15.604;2022-07-24T10:34:17;1.30;;;0.80;;
40793;SDS011;26502;51.886;15.604;2022-07-24T10:39:33;0.80;;;0.80;;
40793;SDS011;26502;51.886;15.604;2022-07-24T10:45:00;0.80;;;0.70;;
40793;SDS011;26502;51.886;15.604;2022-07-24T10:50:21;0.70;;;0.60;;
40793;SDS011;26502;51.886;15.604;2022-07-24T10:55:48;0.70;;;0.70;;
40793;SDS011;26502;51.886;15.604;2022-07-24T11:00:57;1.20;;;0.80;;
40793;SDS011;26502;51.886;15.604;2022-07-24T11:06:06;1.00;;;0.80;;
40793;SDS011;26502;51.886;15.604;2022-07-24T11:11:16;4.10;;;0.80;;
40793;SDS011;26502;51.886;15.604;2022-07-24T11:16:27;1.10;;;0.60;;
40793;SDS011;26502;51.886;15.604;2022-07-24T11:21:37;1.70;;;0.70;;
40793;SDS011;26502;51.886;15.604;2022-07-24T11:26:48;0.90;;;0.70;;
40793;SDS011;26502;51.886;15.604;2022-07-24T11:32:01;1.60;;;0.70;;
40793;SDS011;26502;51.886;15.604;2022-07-24T11:37:14;5.00;;;1.10;;
40793;SDS011;26502;51.886;15.604;2022-07-24T11:42:26;1.30;;;0.60;;
40793;SDS011;26502;51.886;15.604;2022-07-24T11:47:37;0.60;;;0.60;;
40793;SDS011;26502;51.886;15.604;2022-07-24T11:52:46;3.10;;;0.70;;
40793;SDS011;26502;51.886;15.604;2022-07-24T11:57:55;1.00;;;0.80;;
40793;SDS011;26502;51.886;15.604;2022-07-24T12:03:05;1.10;;;0.80;;
40793;SDS011;26502;51.886;15.604;2022-07-24T12:08:17;0.90;;;0.80;;
40793;SDS011;26502;51.886;15.604;2022-07-24T12:13:31;3.50;;;0.90;;
40793;SDS011;26502;51.886;15.604;2022-07-24T12:18:40;1.50;;;0.90;;
40793;SDS011;26502;51.886;15.604;2022-07-24T12:23:52;0.90;;;0.90;;
40793;SDS011;26502;51.886;15.604;2022-07-24T12:29:11;1.00;;;0.80;;
40793;SDS011;26502;51.886;15.604;2022-07-24T12:34:19;2.00;;;1.10;;
40793;SDS011;26502;51.886;15.604;2022-07-24T12:39:29;1.20;;;0.70;;
40793;SDS011;26502;51.886;15.604;2022-07-24T12:44:41;1.00;;;0.80;;
40793;SDS011;26502;51.886;15.604;2022-07-24T12:49:49;0.90;;;0.90;;
40793;SDS011;26502;51.886;15.604;2022-07-24T12:54:56;1.00;;;0.90;;
40793;SDS011;26502;51.886;15.604;2022-07-24T13:00:06;0.70;;;0.70;;
40793;SDS011;26502;51.886;15.604;2022-07-24T13:05:15;0.60;;;0.60;;
40793;SDS011;26502;51.886;15.604;2022-07-24T13:10:42;1.10;;;0.80;;
40793;SDS011;26502;51.886;15.604;2022-07-24T13:15:50;1.00;;;0.80;;
40793;SDS011;26502;51.886;15.604;2022-07-24T13:20:59;1.30;;;0.80;;
40793;SDS011;26502;51.886;15.604;2022-07-24T13:26:08;0.80;;;0.70;;
40793;SDS011;26502;51.886;15.604;2022-07-24T13:31:15;0.60;;;0.60;;
40793;SDS011;26502;51.886;15.604;2022-07-24T13:36:24;1.50;;;1.10;;
40793;SDS011;26502;51.886;15.604;2022-07-24T13:41:32;1.60;;;0.70;;
40793;SDS011;26502;51.886;15.604;2022-07-24T13:46:40;4.00;;;1.00;;
40793;SDS011;26502;51.886;15.604;2022-07-24T13:51:48;0.80;;;0.80;;
40793;SDS011;26502;51.886;15.604;2022-07-24T13:56:57;1.00;;;1.00;;
40793;SDS011;26502;51.886;15.604;2022-07-24T14:02:07;1.00;;;1.00;;
40793;SDS011;26502;51.886;15.604;2022-07-24T14:07:15;0.80;;;0.80;;
40793;SDS011;26502;51.886;15.604;2022-07-24T14:12:25;1.10;;;0.90;;
40793;SDS011;26502;51.886;15.604;2022-07-24T14:17:35;1.80;;;1.50;;
40793;SDS011;26502;51.886;15.604;2022-07-24T14:22:46;0.80;;;0.80;;
40793;SDS011;26502;51.886;15.604;2022-07-24T14:27:54;2.20;;;1.10;;
40793;SDS011;26502;51.886;15.604;2022-07-24T14:33:04;1.60;;;1.10;;
40793;SDS011;26502;51.886;15.604;2022-07-24T14:38:14;2.60;;;1.00;;
40793;SDS011;26502;51.886;15.604;2022-07-24T14:43:25;1.10;;;1.00;;
40793;SDS011;26502;51.886;15.604;2022-07-24T14:48:36;0.90;;;0.80;;
40793;SDS011;26502;51.886;15.604;2022-07-24T14:53:45;1.10;;;0.90;;
40793;SDS011;26502;51.886;15.604;2022-07-24T14:58:53;1.00;;;0.90;;
40793;SDS011;26502;51.886;15.604;2022-07-24T15:04:01;3.50;;;1.00;;
40793;SDS011;26502;51.886;15.604;2022-07-24T15:09:10;1.10;;;1.00;;
40793;SDS011;26502;51.886;15.604;2022-07-24T15:14:18;0.80;;;0.80;;
40793;SDS011;26502;51.886;15.604;2022-07-24T15:19:26;2.60;;;0.80;;
40793;SDS011;26502;51.886;15.604;2022-07-24T15:24:34;1.60;;;1.00;;
40793;SDS011;26502;51.886;15.604;2022-07-24T15:29:44;1.10;;;1.10;;
40793;SDS011;26502;51.886;15.604;2022-07-24T15:34:53;0.80;;;0.80;;
40793;SDS011;26502;51.886;15.604;2022-07-24T15:40:04;0.60;;;0.60;;
40793;SDS011;26502;51.886;15.604;2022-07-24T15:45:17;1.30;;;0.90;;
40793;SDS011;26502;51.886;15.604;2022-07-24T15:50:26;0.80;;;0.80;;
40793;SDS011;26502;51.886;15.604;2022-07-24T15:55:34;0.80;;;0.80;;
40793;SDS011;26502;51.886;15.604;2022-07-24T16:00:43;1.00;;;1.00;;
40793;SDS011;26502;51.886;15.604;2022-07-24T16:07:30;0.80;;;0.80;;
40793;SDS011;26502;51.886;15.604;2022-07-24T16:12:38;1.20;;;1.10;;
40793;SDS011;26502;51.886;15.604;2022-07-24T16:17:51;1.40;;;0.80;;
40793;SDS011;26502;51.886;15.604;2022-07-24T16:22:59;1.10;;;1.00;;
40793;SDS011;26502;51.886;15.604;2022-07-24T16:28:06;1.40;;;0.70;;
40793;SDS011;26502;51.886;15.604;2022-07-24T16:33:17;1.10;;;0.70;;
40793;SDS011;26502;51.886;15.604;2022-07-24T16:38:24;0.90;;;0.80;;
40793;SDS011;26502;51.886;15.604;2022-07-24T16:43:31;1.00;;;0.90;;
40793;SDS011;26502;51.886;15.604;2022-07-24T16:48:38;0.80;;;0.80;;
40793;SDS011;26502;51.886;15.604;2022-07-24T16:53:48;4.70;;;1.50;;
40793;SDS011;26502;51.886;15.604;2022-07-24T16:58:57;6.00;;;5.20;;
40793;SDS011;26502;51.886;15.604;2022-07-24T17:04:06;3.60;;;1.20;;
40793;SDS011;26502;51.886;15.604;2022-07-24T17:09:15;2.70;;;1.50;;
40793;SDS011;26502;51.886;15.604;2022-07-24T17:14:22;2.30;;;1.50;;
40793;SDS011;26502;51.886;15.604;2022-07-24T17:19:34;1.50;;;1.40;;
40793;SDS011;26502;51.886;15.604;2022-07-24T17:24:42;6.00;;;1.20;;
40793;SDS011;26502;51.886;15.604;2022-07-24T17:29:49;5.40;;;1.50;;
40793;SDS011;26502;51.886;15.604;2022-07-24T17:34:57;1.10;;;0.80;;
40793;SDS011;26502;51.886;15.604;2022-07-24T17:40:07;1.10;;;0.90;;
40793;SDS011;26502;51.886;15.604;2022-07-24T17:45:16;1.60;;;1.00;;
40793;SDS011;26502;51.886;15.604;2022-07-24T17:50:24;1.30;;;1.00;;
40793;SDS011;26502;51.886;15.604;2022-07-24T17:55:31;6.70;;;3.00;;
40793;SDS011;26502;51.886;15.604;2022-07-24T18:00:38;3.20;;;2.80;;
40793;SDS011;26502;51.886;15.604;2022-07-24T18:05:45;4.40;;;2.00;;
40793;SDS011;26502;51.886;15.604;2022-07-24T18:15:58;5.80;;;1.70;;
40793;SDS011;26502;51.886;15.604;2022-07-24T18:26:12;9.00;;;1.30;;
40793;SDS011;26502;51.886;15.604;2022-07-24T18:31:19;6.80;;;1.60;;
40793;SDS011;26502;51.886;15.604;2022-07-24T18:36:26;70.30;;;4.50;;
40793;SDS011;26502;51.886;15.604;2022-07-24T18:41:35;1.10;;;1.00;;
40793;SDS011;26502;51.886;15.604;2022-07-24T18:46:42;1.10;;;1.10;;
40793;SDS011;26502;51.886;15.604;2022-07-24T18:51:49;1.00;;;1.00;;
40793;SDS011;26502;51.886;15.604;2022-07-24T18:56:58;1.90;;;1.10;;
40793;SDS011;26502;51.886;15.604;2022-07-24T19:07:11;2.20;;;1.10;;
40793;SDS011;26502;51.886;15.604;2022-07-24T19:12:18;1.40;;;1.20;;
40793;SDS011;26502;51.886;15.604;2022-07-24T19:17:26;2.70;;;1.40;;
40793;SDS011;26502;51.886;15.604;2022-07-24T19:22:33;4.20;;;1.40;;
40793;SDS011;26502;51.886;15.604;2022-07-24T19:27:40;3.10;;;1.30;;
40793;SDS011;26502;51.886;15.604;2022-07-24T19:32:48;3.20;;;2.10;;
40793;SDS011;26502;51.886;15.604;2022-07-24T19:37:56;3.80;;;2.80;;
40793;SDS011;26502;51.886;15.604;2022-07-24T19:43:04;1.60;;;1.50;;
40793;SDS011;26502;51.886;15.604;2022-07-24T19:48:11;1.40;;;1.30;;
40793;SDS011;26502;51.886;15.604;2022-07-24T19:53:19;1.60;;;1.30;;
40793;SDS011;26502;51.886;15.604;2022-07-24T19:58:26;2.40;;;1.50;;
40793;SDS011;26502;51.886;15.604;2022-07-24T20:03:37;3.20;;;1.90;;
40793;SDS011;26502;51.886;15.604;2022-07-24T20:08:45;6.00;;;3.00;;
40793;SDS011;26502;51.886;15.604;2022-07-24T20:13:53;2.20;;;2.00;;
40793;SDS011;26502;51.886;15.604;2022-07-24T20:19:00;1.40;;;1.30;;
40793;SDS011;26502;51.886;15.604;2022-07-24T20:24:07;1.50;;;1.40;;
40793;SDS011;26502;51.886;15.604;2022-07-24T20:29:16;1.50;;;1.40;;
40793;SDS011;26502;51.886;15.604;2022-07-24T20:34:23;1.80;;;1.70;;
40793;SDS011;26502;51.886;15.604;2022-07-24T20:39:31;2.00;;;1.40;;
40793;SDS011;26502;51.886;15.604;2022-07-24T20:44:42;1.40;;;1.30;;
40793;SDS011;26502;51.886;15.604;2022-07-24T20:49:49;2.00;;;1.80;;
40793;SDS011;26502;51.886;15.604;2022-07-24T20:54:56;1.80;;;1.70;;
40793;SDS011;26502;51.886;15.604;2022-07-24T21:00:04;1.50;;;1.40;;
40793;SDS011;26502;51.886;15.604;2022-07-24T21:05:14;2.10;;;1.70;;
40793;SDS011;26502;51.886;15.604;2022-07-24T21:10:21;3.00;;;1.60;;
40793;SDS011;26502;51.886;15.604;2022-07-24T21:15:29;4.70;;;2.60;;
40793;SDS011;26502;51.886;15.604;2022-07-24T21:20:36;2.00;;;1.90;;
40793;SDS011;26502;51.886;15.604;2022-07-24T21:25:43;4.50;;;2.20;;
40793;SDS011;26502;51.886;15.604;2022-07-24T21:30:51;5.40;;;1.90;;
40793;SDS011;26502;51.886;15.604;2022-07-24T21:35:58;4.00;;;1.70;;
40793;SDS011;26502;51.886;15.604;2022-07-24T21:41:06;2.00;;;1.70;;
40793;SDS011;26502;51.886;15.604;2022-07-24T21:46:16;3.50;;;1.90;;
40793;SDS011;26502;51.886;15.604;2022-07-24T21:51:23;3.80;;;1.70;;
40793;SDS011;26502;51.886;15.604;2022-07-24T21:56:30;4.30;;;2.30;;
40793;SDS011;26502;51.886;15.604;2022-07-24T22:01:38;3.80;;;1.90;;
40793;SDS011;26502;51.886;15.604;2022-07-24T22:06:59;9.00;;;2.10;;
40793;SDS011;26502;51.886;15.604;2022-07-24T22:12:10;2.60;;;2.20;;
40793;SDS011;26502;51.886;15.604;2022-07-24T22:17:19;4.60;;;2.30;;
40793;SDS011;26502;51.886;15.604;2022-07-24T22:22:29;5.30;;;2.20;;
40793;SDS011;26502;51.886;15.604;2022-07-24T22:27:37;3.60;;;2.20;;
40793;SDS011;26502;51.886;15.604;2022-07-24T22:32:45;2.60;;;2.10;;
40793;SDS011;26502;51.886;15.604;2022-07-24T22:42:59;4.90;;;2.40;;
40793;SDS011;26502;51.886;15.604;2022-07-24T22:48:07;2.90;;;2.10;;
40793;SDS011;26502;51.886;15.604;2022-07-24T22:53:16;2.30;;;2.10;;
40793;SDS011;26502;51.886;15.604;2022-07-24T22:58:24;3.30;;;2.40;;
40793;SDS011;26502;51.886;15.604;2022-07-24T23:03:31;5.60;;;2.40;;
40793;SDS011;26502;51.886;15.604;2022-07-24T23:08:38;3.80;;;2.60;;
40793;SDS011;26502;51.886;15.604;2022-07-24T23:13:45;5.50;;;2.50;;
40793;SDS011;26502;51.886;15.604;2022-07-24T23:18:52;4.40;;;2.50;;
40793;SDS011;26502;51.886;15.604;2022-07-24T23:23:59;5.30;;;2.90;;
40793;SDS011;26502;51.886;15.604;2022-07-24T23:29:06;4.50;;;2.70;;
40793;SDS011;26502;51.886;15.604;2022-07-24T23:34:13;5.40;;;2.70;;
40793;SDS011;26502;51.886;15.604;2022-07-24T23:39:23;3.80;;;2.90;;
40793;SDS011;26502;51.886;15.604;2022-07-24T23:44:30;5.70;;;3.20;;
40793;SDS011;26502;51.886;15.604;2022-07-24T23:49:38;5.20;;;2.70;;
40793;SDS011;26502;51.886;15.604;2022-07-24T23:54:45;5.50;;;2.50;;
40793;SDS011;26502;51.886;15.604;2022-07-24T23:59:52;4.20;;;2.40;;
